createdAt,value
2018-09-27T00:00:53.693Z,1.70
2018-09-27T00:03:21.642Z,1.57
2018-09-27T00:05:49.598Z,2.00
2018-09-27T00:08:17.699Z,2.10
2018-09-27T00:10:45.666Z,1.87
2018-09-27T00:13:13.550Z,1.60
2018-09-27T00:15:41.495Z,1.90
2018-09-27T00:18:09.531Z,2.20
2018-09-27T00:20:37.507Z,2.13
2018-09-27T00:23:05.476Z,1.80
2018-09-27T00:25:33.437Z,1.97
2018-09-27T00:28:01.467Z,1.67
2018-09-27T00:30:29.431Z,1.73
2018-09-27T00:32:57.373Z,2.10
2018-09-27T00:35:25.313Z,1.83
2018-09-27T00:37:53.374Z,2.13
2018-09-27T00:40:21.313Z,1.90
2018-09-27T00:42:49.253Z,2.30
2018-09-27T00:45:17.195Z,2.10
2018-09-27T00:47:45.137Z,2.23
2018-09-27T00:50:13.070Z,2.13
2018-09-27T00:52:41.026Z,1.83
2018-09-27T00:55:08.956Z,1.80
2018-09-27T00:57:36.906Z,2.10
2018-09-27T01:00:05.536Z,1.77
2018-09-27T01:02:33.462Z,1.97
2018-09-27T01:05:01.403Z,2.17
2018-09-27T01:07:29.338Z,1.97
2018-09-27T01:09:57.306Z,2.30
2018-09-27T01:12:25.292Z,2.37
2018-09-27T01:14:54.169Z,2.33
2018-09-27T01:17:22.155Z,2.10
2018-09-27T01:19:50.116Z,2.80
2018-09-27T01:22:18.157Z,1.83
2018-09-27T01:24:46.154Z,2.40
2018-09-27T01:27:14.109Z,2.30
2018-09-27T01:29:42.110Z,2.37
2018-09-27T01:32:10.190Z,2.20
2018-09-27T01:34:38.130Z,2.40
2018-09-27T01:37:06.341Z,2.40
2018-09-27T01:39:34.292Z,2.30
2018-09-27T01:42:02.225Z,2.00
2018-09-27T01:44:30.275Z,2.27
2018-09-27T01:46:58.258Z,2.27
2018-09-27T01:49:26.226Z,2.13
2018-09-27T01:51:54.360Z,2.40
2018-09-27T01:54:22.298Z,2.30
2018-09-27T01:56:50.234Z,2.50
2018-09-27T01:59:18.186Z,2.20
2018-09-27T02:01:46.135Z,2.50
2018-09-27T02:04:14.080Z,2.60
2018-09-27T02:06:42.101Z,2.60
2018-09-27T02:09:10.443Z,2.90
2018-09-27T02:11:38.607Z,3.03
2018-09-27T02:14:06.900Z,2.83
2018-09-27T02:19:08.150Z,2.63
2018-09-27T02:21:36.092Z,2.90
2018-09-27T02:24:04.145Z,2.73
2018-09-27T02:26:32.074Z,2.70
2018-09-27T02:29:00.019Z,2.87
2018-09-27T02:31:28.076Z,2.93
2018-09-27T02:33:56.008Z,3.07
2018-09-27T02:36:23.972Z,2.90
2018-09-27T02:38:51.938Z,3.30
2018-09-27T02:41:19.885Z,3.40
2018-09-27T02:43:47.876Z,3.30
2018-09-27T02:46:15.821Z,3.33
2018-09-27T02:48:44.224Z,3.00
2018-09-27T02:51:12.164Z,3.80
2018-09-27T02:53:40.081Z,3.07
2018-09-27T02:56:08.108Z,3.10
2018-09-27T02:58:36.042Z,3.80
2018-09-27T03:01:04.015Z,3.17
2018-09-27T03:03:31.964Z,3.37
2018-09-27T03:06:00.108Z,3.63
2018-09-27T03:08:28.443Z,2.93
2018-09-27T03:10:56.533Z,3.53
2018-09-27T03:13:24.525Z,3.00
2018-09-27T03:15:52.536Z,3.37
2018-09-27T03:18:20.778Z,3.73
2018-09-27T03:20:48.726Z,3.80
2018-09-27T03:23:16.663Z,3.37
2018-09-27T03:25:44.585Z,3.27
2018-09-27T03:28:12.585Z,4.13
2018-09-27T03:30:40.548Z,4.33
2018-09-27T03:33:08.549Z,3.10
2018-09-27T03:35:36.519Z,3.47
2018-09-27T03:38:04.483Z,3.43
2018-09-27T03:40:32.450Z,3.83
2018-09-27T03:43:00.684Z,3.80
2018-09-27T03:45:28.756Z,3.60
2018-09-27T03:47:56.825Z,4.17
2018-09-27T03:50:24.783Z,4.13
2018-09-27T03:52:52.723Z,3.70
2018-09-27T03:55:20.677Z,4.17
2018-09-27T03:57:48.597Z,3.63
2018-09-27T04:00:16.975Z,3.83
2018-09-27T04:02:44.984Z,4.60
2018-09-27T04:05:12.944Z,3.90
2018-09-27T04:07:41.059Z,4.20
2018-09-27T04:10:09.208Z,4.40
2018-09-27T04:12:37.463Z,3.90
2018-09-27T04:15:06.037Z,3.83
2018-09-27T04:17:34.187Z,4.30
2018-09-27T04:20:02.330Z,4.10
2018-09-27T04:22:30.475Z,4.37
2018-09-27T04:24:58.893Z,3.77
2018-09-27T04:27:27.036Z,4.73
2018-09-27T04:29:55.315Z,4.13
2018-09-27T04:32:23.432Z,4.77
2018-09-27T04:34:51.580Z,4.80
2018-09-27T04:37:19.749Z,3.87
2018-09-27T04:39:47.913Z,3.80
2018-09-27T04:42:15.964Z,4.57
2018-09-27T04:44:44.148Z,4.00
2018-09-27T04:47:12.312Z,3.90
2018-09-27T04:49:40.389Z,5.70
2018-09-27T04:52:08.559Z,5.17
2018-09-27T04:54:36.761Z,3.80
2018-09-27T04:57:04.907Z,4.37
2018-09-27T04:59:33.067Z,3.93
2018-09-27T05:02:01.185Z,4.33
2018-09-27T05:04:29.336Z,4.23
2018-09-27T05:06:57.546Z,4.60
2018-09-27T05:09:25.683Z,5.13
2018-09-27T05:11:53.881Z,4.07
2018-09-27T05:14:21.994Z,4.20
2018-09-27T05:16:50.216Z,4.47
2018-09-27T05:19:18.211Z,4.67
2018-09-27T05:21:46.158Z,4.30
2018-09-27T05:24:14.118Z,4.60
2018-09-27T05:26:42.109Z,3.97
2018-09-27T05:29:10.444Z,4.13
2018-09-27T05:31:38.374Z,4.07
2018-09-27T05:34:06.346Z,4.00
2018-09-27T05:36:34.326Z,4.47
2018-09-27T05:39:02.274Z,4.77
2018-09-27T05:41:30.243Z,4.77
2018-09-27T05:43:58.717Z,3.70
2018-09-27T05:46:26.821Z,3.70
2018-09-27T05:48:55.062Z,4.57
2018-09-27T05:51:24.326Z,4.63
2018-09-27T05:53:53.117Z,4.10
2018-09-27T05:56:21.405Z,4.60
2018-09-27T05:58:49.872Z,3.50
2018-09-27T06:01:17.935Z,4.33
2018-09-27T06:03:45.920Z,4.20
2018-09-27T06:06:13.890Z,3.90
2018-09-27T06:08:41.858Z,3.53
2018-09-27T06:11:09.794Z,3.77
2018-09-27T06:13:37.733Z,4.30
2018-09-27T06:16:06.081Z,3.87
2018-09-27T06:18:34.153Z,3.70
2018-09-27T06:21:02.177Z,3.60
2018-09-27T06:23:30.303Z,4.40
2018-09-27T06:25:58.291Z,4.93
2018-09-27T06:28:26.255Z,3.87
2018-09-27T06:30:54.202Z,4.20
2018-09-27T06:33:22.275Z,4.47
2018-09-27T06:35:50.193Z,4.33
2018-09-27T06:38:18.272Z,4.00
2018-09-27T06:40:46.228Z,4.40
2018-09-27T06:43:14.225Z,4.20
2018-09-27T06:45:42.652Z,4.50
2018-09-27T06:48:10.631Z,4.90
2018-09-27T06:50:38.534Z,4.17
2018-09-27T06:53:06.446Z,4.03
2018-09-27T06:55:34.507Z,3.80
2018-09-27T06:58:02.406Z,3.67
2018-09-27T07:00:30.429Z,3.93
2018-09-27T07:02:58.393Z,3.80
2018-09-27T07:05:26.331Z,5.20
2018-09-27T07:07:54.317Z,5.10
2018-09-27T07:10:22.259Z,3.87
2018-09-27T07:12:50.331Z,4.23
2018-09-27T07:15:18.302Z,3.77
2018-09-27T07:17:46.253Z,3.93
2018-09-27T07:20:14.254Z,3.17
2018-09-27T07:22:42.243Z,3.80
2018-09-27T07:25:10.346Z,3.63
2018-09-27T07:27:38.383Z,4.13
2018-09-27T07:30:06.308Z,3.73
2018-09-27T07:32:34.329Z,4.30
2018-09-27T07:35:02.258Z,4.37
2018-09-27T07:37:30.236Z,4.70
2018-09-27T07:39:58.269Z,4.07
2018-09-27T07:42:26.244Z,4.57
2018-09-27T07:44:54.211Z,3.90
2018-09-27T07:47:22.165Z,4.30
2018-09-27T07:49:50.159Z,4.10
2018-09-27T07:52:18.305Z,4.17
2018-09-27T07:54:46.353Z,4.67
2018-09-27T07:57:14.299Z,4.97
2018-09-27T07:59:42.241Z,4.80
2018-09-27T08:02:10.583Z,4.53
2018-09-27T08:04:38.570Z,5.17
2018-09-27T08:07:06.609Z,3.90
2018-09-27T08:09:34.647Z,4.23
2018-09-27T08:12:02.687Z,4.13
2018-09-27T08:14:30.578Z,4.30
2018-09-27T08:16:58.593Z,4.27
2018-09-27T08:19:26.699Z,5.20
2018-09-27T08:21:54.671Z,4.83
2018-09-27T08:24:22.674Z,5.00
2018-09-27T08:26:50.637Z,5.27
2018-09-27T08:29:18.681Z,4.87
2018-09-27T08:31:46.675Z,4.33
2018-09-27T08:34:14.747Z,4.33
2018-09-27T08:36:42.730Z,4.47
2018-09-27T08:39:12.214Z,5.50
2018-09-27T08:41:40.212Z,5.23
2018-09-27T08:44:08.968Z,4.77
2018-09-27T08:46:36.927Z,4.77
2018-09-27T08:49:05.302Z,3.93
2018-09-27T08:51:33.305Z,5.00
2018-09-27T08:54:01.447Z,5.80
2018-09-27T08:56:29.452Z,4.70
2018-09-27T08:58:57.499Z,3.97
2018-09-27T09:01:25.602Z,4.10
2018-09-27T09:06:28.033Z,4.30
2018-09-27T09:08:56.106Z,4.93
2018-09-27T09:11:24.072Z,5.10
2018-09-27T09:13:52.010Z,4.30
2018-09-27T09:16:20.050Z,4.33
2018-09-27T09:18:48.007Z,4.50
2018-09-27T09:21:15.988Z,4.73
2018-09-27T09:23:44.047Z,3.70
2018-09-27T09:26:12.013Z,4.37
2018-09-27T09:28:40.132Z,4.10
2018-09-27T09:31:08.063Z,3.73
2018-09-27T09:33:36.044Z,3.50
2018-09-27T09:36:04.065Z,3.93
2018-09-27T09:38:32.090Z,3.47
2018-09-27T09:41:00.142Z,3.47
2018-09-27T09:43:28.314Z,3.27
2018-09-27T09:45:56.263Z,4.13
2018-09-27T09:48:24.446Z,3.20
2018-09-27T09:50:52.502Z,3.00
2018-09-27T09:53:20.450Z,3.37
2018-09-27T09:55:48.445Z,3.13
2018-09-27T09:58:16.399Z,3.50
2018-09-27T10:00:44.354Z,3.23
2018-09-27T10:03:12.299Z,3.40
2018-09-27T10:05:40.464Z,3.03
2018-09-27T10:08:08.471Z,3.27
2018-09-27T10:10:36.442Z,3.93
2018-09-27T10:13:04.382Z,2.93
2018-09-27T10:15:32.441Z,3.00
2018-09-27T10:18:00.707Z,2.47
2018-09-27T10:20:28.669Z,2.77
2018-09-27T10:22:56.711Z,2.63
2018-09-27T10:25:24.701Z,1.83
2018-09-27T10:27:52.736Z,2.80
2018-09-27T10:30:20.761Z,2.30
2018-09-27T10:32:48.732Z,3.00
2018-09-27T10:35:16.704Z,2.20
2018-09-27T10:37:44.719Z,2.00
2018-09-27T10:40:12.671Z,4.20
2018-09-27T10:42:40.682Z,2.77
2018-09-27T10:45:09.125Z,2.17
2018-09-27T10:47:37.071Z,2.27
2018-09-27T10:50:05.357Z,2.07
2018-09-27T10:52:33.833Z,2.23
2018-09-27T10:55:01.799Z,2.40
2018-09-27T10:57:29.891Z,2.00
2018-09-27T10:59:57.902Z,1.90
2018-09-27T11:02:26.019Z,2.10
2018-09-27T11:04:54.496Z,2.03
2018-09-27T11:07:22.988Z,2.00
2018-09-27T11:09:50.979Z,2.27
2018-09-27T11:12:19.041Z,1.97
2018-09-27T11:14:47.189Z,1.77
2018-09-27T11:17:15.231Z,1.67
2018-09-27T11:19:43.236Z,1.77
2018-09-27T11:22:11.313Z,1.87
2018-09-27T11:24:39.496Z,1.70
2018-09-27T11:27:07.583Z,1.60
2018-09-27T11:29:41.140Z,3.73
2018-09-27T11:32:14.920Z,1.77
2018-09-27T11:34:42.905Z,1.30
2018-09-27T11:37:11.067Z,1.30
2018-09-27T11:39:39.204Z,1.63
2018-09-27T11:42:07.366Z,1.33
2018-09-27T11:44:35.380Z,1.40
2018-09-27T11:47:03.375Z,1.40
2018-09-27T11:49:31.523Z,2.87
2018-09-27T11:51:59.492Z,1.67
2018-09-27T11:54:27.525Z,1.83
2018-09-27T11:56:55.475Z,1.83
2018-09-27T11:59:23.554Z,2.00
2018-09-27T12:01:51.697Z,2.13
2018-09-27T12:04:19.795Z,1.53
2018-09-27T12:06:48.170Z,1.83
2018-09-27T12:09:16.229Z,2.17
2018-09-27T12:11:44.299Z,2.20
2018-09-27T12:14:13.326Z,2.70
2018-09-27T12:16:41.473Z,1.90
2018-09-27T12:19:09.476Z,1.70
2018-09-27T12:21:37.449Z,2.30
2018-09-27T12:24:05.614Z,1.70
2018-09-27T12:26:36.610Z,1.87
2018-09-27T12:29:04.559Z,1.70
2018-09-27T12:31:32.629Z,2.10
2018-09-27T12:34:00.677Z,1.80
2018-09-27T12:36:28.899Z,1.60
2018-09-27T12:38:56.983Z,1.70
2018-09-27T12:41:24.915Z,2.00
2018-09-27T12:43:53.048Z,1.83
2018-09-27T12:46:21.036Z,2.07
2018-09-27T12:48:49.126Z,1.93
2018-09-27T12:51:17.287Z,1.80
2018-09-27T12:53:45.126Z,2.53
2018-09-27T12:56:13.176Z,2.33
2018-09-27T12:58:41.279Z,2.37
2018-09-27T13:01:09.314Z,2.57
2018-09-27T13:03:37.231Z,2.50
2018-09-27T13:06:05.172Z,3.63
2018-09-27T13:08:33.280Z,2.90
2018-09-27T13:11:01.332Z,3.10
2018-09-27T13:13:29.585Z,3.30
2018-09-27T13:15:57.506Z,2.70
2018-09-27T13:18:25.428Z,2.63
2018-09-27T13:20:53.732Z,3.40
2018-09-27T13:23:21.708Z,2.77
2018-09-27T13:25:49.664Z,2.80
2018-09-27T13:28:17.664Z,2.93
2018-09-27T13:30:45.940Z,3.07
2018-09-27T13:33:14.039Z,2.40
2018-09-27T13:35:42.092Z,2.73
2018-09-27T13:38:10.154Z,2.23
2018-09-27T13:40:38.178Z,2.57
2018-09-27T13:43:06.427Z,3.37
2018-09-27T13:45:34.543Z,3.53
2018-09-27T13:48:02.587Z,2.37
2018-09-27T13:50:30.662Z,3.53
2018-09-27T13:52:58.701Z,4.43
2018-09-27T13:55:26.653Z,2.80
2018-09-27T13:57:54.855Z,3.17
2018-09-27T14:00:22.889Z,3.07
2018-09-27T14:02:51.084Z,2.87
2018-09-27T14:05:20.128Z,3.13
2018-09-27T14:07:48.143Z,2.63
2018-09-27T14:10:16.128Z,3.23
2018-09-27T14:12:44.066Z,3.77
2018-09-27T14:15:12.137Z,4.27
2018-09-27T14:17:40.134Z,3.20
2018-09-27T14:20:08.491Z,3.87
2018-09-27T14:22:36.425Z,3.30
2018-09-27T14:25:04.474Z,2.90
2018-09-27T14:27:32.867Z,4.00
2018-09-27T14:30:00.875Z,4.10
2018-09-27T14:32:29.002Z,3.53
2018-09-27T14:34:56.962Z,4.50
2018-09-27T14:37:25.014Z,3.70
2018-09-27T14:39:53.538Z,2.83
2018-09-27T14:42:21.590Z,3.17
2018-09-27T14:44:49.710Z,3.23
2018-09-27T14:47:17.742Z,2.83
2018-09-27T14:49:45.691Z,3.93
2018-09-27T14:52:13.718Z,3.30
2018-09-27T14:54:41.813Z,2.97
2018-09-27T14:57:10.009Z,3.60
2018-09-27T14:59:38.247Z,3.43
2018-09-27T15:02:06.337Z,2.67
2018-09-27T15:04:34.279Z,3.43
2018-09-27T15:07:02.990Z,3.43
2018-09-27T15:09:31.023Z,3.03
2018-09-27T15:11:59.117Z,4.57
2018-09-27T15:14:27.159Z,3.07
2018-09-27T15:16:55.098Z,3.17
2018-09-27T15:19:23.107Z,3.63
2018-09-27T15:21:51.082Z,4.00
2018-09-27T15:24:19.192Z,3.60
2018-09-27T15:26:47.206Z,3.87
2018-09-27T15:29:15.324Z,3.80
2018-09-27T15:31:43.500Z,2.93
2018-09-27T15:34:11.587Z,3.10
2018-09-27T15:36:39.625Z,3.73
2018-09-27T15:39:08.059Z,4.17
2018-09-27T15:41:36.119Z,3.83
2018-09-27T15:44:04.167Z,3.87
2018-09-27T15:46:32.099Z,4.00
2018-09-27T15:49:00.411Z,5.30
2018-09-27T15:51:28.446Z,4.63
2018-09-27T15:53:56.347Z,3.90
2018-09-27T15:56:24.564Z,3.50
2018-09-27T15:58:52.553Z,3.70
2018-09-27T16:01:20.664Z,4.33
2018-09-27T16:03:48.675Z,5.13
2018-09-27T16:06:16.735Z,3.53
2018-09-27T16:08:44.722Z,4.83
2018-09-27T16:11:12.718Z,4.13
2018-09-27T16:13:40.767Z,4.53
2018-09-27T16:16:08.713Z,4.23
2018-09-27T16:18:36.758Z,4.13
2018-09-27T16:21:04.719Z,4.40
2018-09-27T16:23:32.744Z,4.63
2018-09-27T16:26:00.867Z,5.77
2018-09-27T16:28:28.838Z,4.40
2018-09-27T16:31:00.556Z,5.47
2018-09-27T16:33:29.109Z,5.07
2018-09-27T16:35:57.026Z,4.57
2018-09-27T16:38:25.673Z,4.93
2018-09-27T16:40:54.961Z,5.20
2018-09-27T16:43:23.062Z,4.87
2018-09-27T16:45:51.405Z,5.30
2018-09-27T16:48:19.342Z,5.57
2018-09-27T16:50:47.419Z,4.20
2018-09-27T16:53:15.430Z,4.87
2018-09-27T16:55:43.397Z,4.87
2018-09-27T16:58:11.364Z,6.13
2018-09-27T17:00:39.549Z,7.43
2018-09-27T17:03:08.603Z,4.53
2018-09-27T17:05:36.650Z,4.10
2018-09-27T17:08:04.630Z,4.73
2018-09-27T17:10:32.598Z,3.87
2018-09-27T17:13:00.979Z,5.83
2018-09-27T17:15:28.850Z,5.33
2018-09-27T17:17:56.800Z,4.60
2018-09-27T17:20:25.046Z,4.90
2018-09-27T17:22:53.144Z,6.23
2018-09-27T17:25:21.128Z,5.43
2018-09-27T17:27:49.347Z,5.53
2018-09-27T17:30:17.318Z,4.80
2018-09-27T17:32:45.301Z,4.70
2018-09-27T17:35:13.456Z,4.77
2018-09-27T17:37:41.473Z,4.27
2018-09-27T17:40:09.425Z,4.77
2018-09-27T17:42:37.436Z,4.60
2018-09-27T17:45:05.437Z,9.20
2018-09-27T17:47:33.450Z,5.97
2018-09-27T17:50:01.459Z,6.67
2018-09-27T17:52:29.465Z,8.17
2018-09-27T17:54:57.468Z,18.40
2018-09-27T17:57:25.402Z,17.07
2018-09-27T17:59:54.692Z,11.47
2018-09-27T18:02:23.559Z,7.40
2018-09-27T18:04:51.521Z,6.13
2018-09-27T18:07:19.600Z,4.27
2018-09-27T18:09:47.657Z,5.33
2018-09-27T18:12:15.707Z,3.80
2018-09-27T18:14:43.692Z,4.27
2018-09-27T18:17:11.765Z,4.50
2018-09-27T18:19:39.777Z,3.97
2018-09-27T18:22:07.766Z,4.13
2018-09-27T18:24:35.707Z,5.87
2018-09-27T18:27:03.686Z,6.33
2018-09-27T18:29:31.728Z,3.87
2018-09-27T18:31:59.779Z,4.40
2018-09-27T18:34:27.818Z,4.30
2018-09-27T18:36:55.770Z,4.07
2018-09-27T18:39:23.763Z,4.20
2018-09-27T18:41:51.868Z,3.57
2018-09-27T18:44:19.837Z,4.03
2018-09-27T18:46:47.787Z,3.63
2018-09-27T18:49:15.747Z,3.90
2018-09-27T18:51:43.696Z,2.80
2018-09-27T18:54:11.722Z,3.37
2018-09-27T18:56:39.822Z,4.20
2018-09-27T18:59:07.821Z,3.80
2018-09-27T19:01:35.756Z,3.90
2018-09-27T19:04:03.876Z,3.60
2018-09-27T19:06:31.817Z,3.40
2018-09-27T19:08:59.746Z,4.10
2018-09-27T19:11:27.719Z,3.90
2018-09-27T19:13:59.272Z,4.10
2018-09-27T19:16:27.249Z,3.43
2018-09-27T19:18:55.331Z,4.90
2018-09-27T19:21:23.291Z,4.73
2018-09-27T19:23:51.233Z,4.73
2018-09-27T19:26:19.179Z,3.80
2018-09-27T19:28:50.468Z,3.50
2018-09-27T19:31:18.445Z,3.90
2018-09-27T19:33:46.749Z,3.80
2018-09-27T19:36:14.759Z,4.00
2018-09-27T19:38:42.793Z,5.50
2018-09-27T19:41:10.754Z,7.43
2018-09-27T19:43:38.828Z,6.67
2018-09-27T19:46:06.808Z,6.83
2018-09-27T19:48:35.000Z,4.73
2018-09-27T19:51:02.974Z,3.60
2018-09-27T19:53:30.938Z,3.70
2018-09-27T19:55:58.963Z,3.70
2018-09-27T19:58:27.026Z,4.03
2018-09-27T20:00:54.959Z,4.13
2018-09-27T20:03:23.012Z,3.40
2018-09-27T20:05:50.964Z,3.80
2018-09-27T20:08:19.037Z,3.60
2018-09-27T20:10:47.018Z,3.50
2018-09-27T20:13:14.971Z,3.90
2018-09-27T20:15:43.043Z,3.90
2018-09-27T20:18:11.029Z,3.80
2018-09-27T20:20:39.097Z,3.97
2018-09-27T20:23:07.128Z,3.57
2018-09-27T20:25:35.141Z,3.60
2018-09-27T20:28:03.271Z,3.63
2018-09-27T20:30:31.177Z,3.10
2018-09-27T20:32:59.464Z,3.70
2018-09-27T20:35:27.597Z,3.93
2018-09-27T20:37:55.549Z,4.00
2018-09-27T20:40:23.889Z,5.40
2018-09-27T20:42:51.952Z,5.77
2018-09-27T20:45:20.727Z,4.53
2018-09-27T20:47:48.853Z,5.17
2018-09-27T20:50:16.890Z,5.20
2018-09-27T20:52:44.959Z,4.57
2018-09-27T20:55:12.940Z,4.60
2018-09-27T20:57:40.899Z,4.23
2018-09-27T21:00:08.891Z,4.33
2018-09-27T21:02:37.234Z,4.10
2018-09-27T21:05:05.178Z,3.83
2018-09-27T21:07:33.219Z,4.30
2018-09-27T21:10:01.169Z,5.20
2018-09-27T21:12:29.228Z,5.67
2018-09-27T21:14:57.294Z,4.93
2018-09-27T21:17:25.236Z,5.00
2018-09-27T21:19:53.194Z,4.07
2018-09-27T21:22:21.184Z,3.83
2018-09-27T21:24:49.147Z,4.10
2018-09-27T21:27:17.219Z,3.87
2018-09-27T21:29:45.739Z,4.17
2018-09-27T21:32:13.736Z,3.90
2018-09-27T21:34:41.726Z,3.97
2018-09-27T21:37:09.665Z,3.80
2018-09-27T21:39:37.781Z,3.83
2018-09-27T21:42:05.888Z,4.03
2018-09-27T21:44:33.958Z,4.07
2018-09-27T21:47:02.024Z,3.57
2018-09-27T21:49:30.090Z,3.60
2018-09-27T21:51:58.115Z,3.93
2018-09-27T21:54:26.354Z,4.00
2018-09-27T21:56:54.381Z,4.20
2018-09-27T21:59:22.431Z,3.97
2018-09-27T22:01:50.448Z,4.37
2018-09-27T22:04:18.470Z,4.20
2018-09-27T22:06:46.598Z,3.87
2018-09-27T22:09:14.648Z,4.00
2018-09-27T22:11:42.622Z,4.10
2018-09-27T22:14:10.572Z,4.07
2018-09-27T22:16:38.597Z,4.50
2018-09-27T22:19:06.566Z,4.53
2018-09-27T22:21:34.648Z,4.53
2018-09-27T22:24:02.678Z,3.93
2018-09-27T22:26:31.575Z,4.23
2018-09-27T22:28:59.619Z,4.07
2018-09-27T22:31:27.705Z,3.67
2018-09-27T22:33:55.812Z,3.87
2018-09-27T22:36:23.843Z,4.73
2018-09-27T22:38:51.849Z,4.27
2018-09-27T22:41:19.940Z,3.70
2018-09-27T22:43:48.056Z,4.10
2018-09-27T22:46:16.075Z,3.93
2018-09-27T22:48:44.107Z,4.10
2018-09-27T22:51:12.057Z,4.17
2018-09-27T22:53:40.030Z,3.60
2018-09-27T22:56:07.968Z,3.63
2018-09-27T22:58:36.027Z,3.60
2018-09-27T23:01:03.979Z,3.90
2018-09-27T23:03:31.918Z,3.73
2018-09-27T23:05:59.924Z,3.40
2018-09-27T23:08:27.965Z,4.70
2018-09-27T23:10:55.970Z,4.17
2018-09-27T23:13:24.140Z,3.80
2018-09-27T23:15:52.110Z,3.57
2018-09-27T23:18:20.124Z,4.20
2018-09-27T23:20:48.162Z,4.00
2018-09-27T23:23:16.236Z,3.90
2018-09-27T23:25:44.352Z,3.80
2018-09-27T23:28:12.268Z,4.07
2018-09-27T23:30:40.450Z,4.07
2018-09-27T23:33:08.524Z,4.13
2018-09-27T23:35:36.596Z,3.43
2018-09-27T23:38:04.655Z,3.40
2018-09-27T23:40:32.624Z,4.10
2018-09-27T23:43:00.699Z,3.77
2018-09-27T23:45:28.706Z,3.60
2018-09-27T23:47:56.854Z,3.77
2018-09-27T23:50:24.817Z,3.80
2018-09-27T23:52:52.827Z,3.60
2018-09-27T23:55:20.955Z,3.80
2018-09-27T23:57:49.033Z,3.70
